sensor_id;sensor_type;location;lat;lon;timestamp;pressure;altitude;pressure_sealevel;temperature;humidity
39954;BME280;25631;51.516;-0.470;2022-07-30T00:00:34;101697.63;;;19.21;30.90
39954;BME280;25631;51.516;-0.470;2022-07-30T00:03:10;101696.78;;;19.69;30.99
39954;BME280;25631;51.516;-0.470;2022-07-30T00:05:47;101696.89;;;19.34;31.11
39954;BME280;25631;51.516;-0.470;2022-07-30T00:08:24;101697.97;;;19.55;31.27
39954;BME280;25631;51.516;-0.470;2022-07-30T00:11:00;101698.91;;;19.13;31.47
39954;BME280;25631;51.516;-0.470;2022-07-30T00:13:36;101697.29;;;19.35;31.47
39954;BME280;25631;51.516;-0.470;2022-07-30T00:16:13;101704.40;;;19.27;31.67
39954;BME280;25631;51.516;-0.470;2022-07-30T00:18:49;101701.79;;;19.23;31.72
39954;BME280;25631;51.516;-0.470;2022-07-30T00:21:26;101696.22;;;19.40;31.93
39954;BME280;25631;51.516;-0.470;2022-07-30T00:24:03;101693.87;;;19.04;32.15
39954;BME280;25631;51.516;-0.470;2022-07-30T00:26:40;101691.59;;;19.09;32.12
39954;BME280;25631;51.516;-0.470;2022-07-30T00:29:17;101688.59;;;18.86;32.59
39954;BME280;25631;51.516;-0.470;2022-07-30T00:31:53;101689.78;;;19.05;32.62
39954;BME280;25631;51.516;-0.470;2022-07-30T00:34:29;101689.93;;;18.61;32.69
39954;BME280;25631;51.516;-0.470;2022-07-30T00:37:06;101686.19;;;18.95;32.90
39954;BME280;25631;51.516;-0.470;2022-07-30T00:39:42;101682.69;;;18.66;33.04
39954;BME280;25631;51.516;-0.470;2022-07-30T00:42:19;101674.89;;;18.96;33.16
39954;BME280;25631;51.516;-0.470;2022-07-30T00:44:55;101675.05;;;18.80;33.41
39954;BME280;25631;51.516;-0.470;2022-07-30T00:47:31;101670.03;;;18.85;33.40
39954;BME280;25631;51.516;-0.470;2022-07-30T00:50:10;101669.81;;;18.71;33.53
39954;BME280;25631;51.516;-0.470;2022-07-30T00:52:47;101669.96;;;18.64;33.65
39954;BME280;25631;51.516;-0.470;2022-07-30T00:55:23;101670.44;;;18.67;33.66
39954;BME280;25631;51.516;-0.470;2022-07-30T00:58:00;101672.55;;;18.57;33.83
39954;BME280;25631;51.516;-0.470;2022-07-30T01:00:36;101672.49;;;18.55;34.06
39954;BME280;25631;51.516;-0.470;2022-07-30T01:03:13;101670.83;;;18.37;34.15
39954;BME280;25631;51.516;-0.470;2022-07-30T01:05:49;101668.11;;;18.46;34.29
39954;BME280;25631;51.516;-0.470;2022-07-30T01:08:26;101663.32;;;18.15;34.51
39954;BME280;25631;51.516;-0.470;2022-07-30T01:11:02;101661.10;;;18.39;34.50
39954;BME280;25631;51.516;-0.470;2022-07-30T01:13:39;101662.33;;;18.27;34.57
39954;BME280;25631;51.516;-0.470;2022-07-30T01:16:16;101662.76;;;18.45;34.52
39954;BME280;25631;51.516;-0.470;2022-07-30T01:18:53;101664.91;;;18.10;34.69
39954;BME280;25631;51.516;-0.470;2022-07-30T01:21:36;101660.45;;;18.32;34.85
39954;BME280;25631;51.516;-0.470;2022-07-30T01:24:23;101660.57;;;18.32;35.12
39954;BME280;25631;51.516;-0.470;2022-07-30T01:27:03;101658.20;;;18.04;35.41
39954;BME280;25631;51.516;-0.470;2022-07-30T01:29:42;101653.83;;;17.83;35.61
39954;BME280;25631;51.516;-0.470;2022-07-30T01:32:22;101651.67;;;18.28;35.38
39954;BME280;25631;51.516;-0.470;2022-07-30T01:35:01;101654.24;;;18.17;35.60
39954;BME280;25631;51.516;-0.470;2022-07-30T01:37:40;101659.78;;;18.19;35.65
39954;BME280;25631;51.516;-0.470;2022-07-30T01:40:18;101660.08;;;18.05;35.77
39954;BME280;25631;51.516;-0.470;2022-07-30T01:42:55;101661.15;;;18.34;35.99
39954;BME280;25631;51.516;-0.470;2022-07-30T01:45:33;101657.30;;;18.18;35.95
39954;BME280;25631;51.516;-0.470;2022-07-30T01:48:11;101659.09;;;18.17;35.86
39954;BME280;25631;51.516;-0.470;2022-07-30T01:50:51;101658.57;;;18.14;36.11
39954;BME280;25631;51.516;-0.470;2022-07-30T01:53:30;101658.73;;;18.19;36.08
39954;BME280;25631;51.516;-0.470;2022-07-30T01:56:09;101662.20;;;18.47;36.16
39954;BME280;25631;51.516;-0.470;2022-07-30T01:58:48;101661.89;;;18.28;36.20
39954;BME280;25631;51.516;-0.470;2022-07-30T02:01:25;101660.95;;;18.62;36.31
39954;BME280;25631;51.516;-0.470;2022-07-30T02:04:02;101659.98;;;18.05;36.31
39954;BME280;25631;51.516;-0.470;2022-07-30T02:06:43;101660.35;;;18.26;36.55
39954;BME280;25631;51.516;-0.470;2022-07-30T02:12:18;101651.44;;;18.21;36.60
39954;BME280;25631;51.516;-0.470;2022-07-30T02:15:04;101645.88;;;18.27;36.65
39954;BME280;25631;51.516;-0.470;2022-07-30T02:17:51;101644.25;;;18.55;36.86
39954;BME280;25631;51.516;-0.470;2022-07-30T02:20:31;101644.01;;;18.30;36.89
39954;BME280;25631;51.516;-0.470;2022-07-30T02:23:10;101645.70;;;18.45;37.02
39954;BME280;25631;51.516;-0.470;2022-07-30T02:25:49;101645.68;;;18.00;37.07
39954;BME280;25631;51.516;-0.470;2022-07-30T02:28:26;101646.92;;;18.21;37.40
39954;BME280;25631;51.516;-0.470;2022-07-30T02:31:04;101642.16;;;18.10;37.27
39954;BME280;25631;51.516;-0.470;2022-07-30T02:33:43;101640.46;;;18.30;37.38
39954;BME280;25631;51.516;-0.470;2022-07-30T02:36:22;101638.73;;;17.78;37.69
39954;BME280;25631;51.516;-0.470;2022-07-30T02:39:02;101635.55;;;17.74;37.84
39954;BME280;25631;51.516;-0.470;2022-07-30T02:41:40;101637.97;;;17.44;37.88
39954;BME280;25631;51.516;-0.470;2022-07-30T02:44:19;101644.05;;;17.74;37.82
39954;BME280;25631;51.516;-0.470;2022-07-30T02:46:58;101641.82;;;17.57;38.30
39954;BME280;25631;51.516;-0.470;2022-07-30T02:49:36;101634.93;;;17.53;38.18
39954;BME280;25631;51.516;-0.470;2022-07-30T02:52:16;101627.28;;;17.43;38.51
39954;BME280;25631;51.516;-0.470;2022-07-30T02:54:55;101632.05;;;17.42;38.45
39954;BME280;25631;51.516;-0.470;2022-07-30T02:57:33;101637.28;;;17.21;38.77
39954;BME280;25631;51.516;-0.470;2022-07-30T03:00:11;101635.99;;;17.07;38.77
39954;BME280;25631;51.516;-0.470;2022-07-30T03:02:48;101633.69;;;16.80;38.93
39954;BME280;25631;51.516;-0.470;2022-07-30T03:05:26;101634.53;;;17.43;38.80
39954;BME280;25631;51.516;-0.470;2022-07-30T03:08:04;101634.74;;;17.01;38.89
39954;BME280;25631;51.516;-0.470;2022-07-30T03:10:42;101634.24;;;17.24;38.80
39954;BME280;25631;51.516;-0.470;2022-07-30T03:13:21;101626.56;;;17.24;38.64
39954;BME280;25631;51.516;-0.470;2022-07-30T03:16:00;101627.16;;;17.56;38.68
39954;BME280;25631;51.516;-0.470;2022-07-30T03:18:40;101619.28;;;17.17;38.56
39954;BME280;25631;51.516;-0.470;2022-07-30T03:21:19;101623.63;;;17.09;38.38
39954;BME280;25631;51.516;-0.470;2022-07-30T03:24:00;101629.26;;;17.47;38.40
39954;BME280;25631;51.516;-0.470;2022-07-30T03:26:38;101625.98;;;17.47;38.34
39954;BME280;25631;51.516;-0.470;2022-07-30T03:29:15;101618.32;;;17.44;38.40
39954;BME280;25631;51.516;-0.470;2022-07-30T03:31:53;101612.36;;;17.45;38.32
39954;BME280;25631;51.516;-0.470;2022-07-30T03:34:31;101614.31;;;17.43;38.37
39954;BME280;25631;51.516;-0.470;2022-07-30T03:37:08;101611.72;;;17.39;38.39
39954;BME280;25631;51.516;-0.470;2022-07-30T03:39:45;101608.01;;;17.40;38.44
39954;BME280;25631;51.516;-0.470;2022-07-30T03:42:23;101602.89;;;17.47;38.44
39954;BME280;25631;51.516;-0.470;2022-07-30T03:45:03;101604.40;;;17.33;38.62
39954;BME280;25631;51.516;-0.470;2022-07-30T03:47:42;101604.06;;;17.09;38.76
39954;BME280;25631;51.516;-0.470;2022-07-30T03:50:18;101610.15;;;17.23;38.66
39954;BME280;25631;51.516;-0.470;2022-07-30T03:52:55;101612.30;;;17.24;38.78
39954;BME280;25631;51.516;-0.470;2022-07-30T03:55:32;101615.35;;;17.14;38.94
39954;BME280;25631;51.516;-0.470;2022-07-30T03:58:09;101619.11;;;17.02;38.77
39954;BME280;25631;51.516;-0.470;2022-07-30T04:00:47;101619.09;;;17.15;38.79
39954;BME280;25631;51.516;-0.470;2022-07-30T04:03:24;101617.64;;;16.93;38.66
39954;BME280;25631;51.516;-0.470;2022-07-30T04:06:01;101614.54;;;17.41;38.80
39954;BME280;25631;51.516;-0.470;2022-07-30T04:08:37;101609.11;;;17.00;38.91
39954;BME280;25631;51.516;-0.470;2022-07-30T04:11:13;101612.74;;;17.08;38.92
39954;BME280;25631;51.516;-0.470;2022-07-30T04:13:50;101619.37;;;17.33;38.81
39954;BME280;25631;51.516;-0.470;2022-07-30T04:16:34;101621.29;;;17.24;38.79
39954;BME280;25631;51.516;-0.470;2022-07-30T04:19:17;101622.65;;;17.35;38.88
39954;BME280;25631;51.516;-0.470;2022-07-30T04:21:56;101618.95;;;17.05;38.98
39954;BME280;25631;51.516;-0.470;2022-07-30T04:24:34;101613.77;;;17.01;39.02
39954;BME280;25631;51.516;-0.470;2022-07-30T04:27:12;101614.69;;;17.05;39.13
39954;BME280;25631;51.516;-0.470;2022-07-30T04:29:49;101610.85;;;17.21;39.16
39954;BME280;25631;51.516;-0.470;2022-07-30T04:32:27;101613.40;;;16.95;39.28
39954;BME280;25631;51.516;-0.470;2022-07-30T04:35:04;101617.60;;;16.84;39.32
39954;BME280;25631;51.516;-0.470;2022-07-30T04:37:40;101617.99;;;16.87;39.48
39954;BME280;25631;51.516;-0.470;2022-07-30T04:40:17;101617.93;;;17.07;39.47
39954;BME280;25631;51.516;-0.470;2022-07-30T04:42:53;101616.13;;;17.05;39.38
39954;BME280;25631;51.516;-0.470;2022-07-30T04:45:29;101611.25;;;17.06;39.30
39954;BME280;25631;51.516;-0.470;2022-07-30T04:48:06;101603.45;;;17.03;39.25
39954;BME280;25631;51.516;-0.470;2022-07-30T04:50:45;101599.06;;;16.77;39.21
39954;BME280;25631;51.516;-0.470;2022-07-30T04:53:25;101603.71;;;17.52;39.15
39954;BME280;25631;51.516;-0.470;2022-07-30T04:56:03;101611.07;;;17.08;39.14
39954;BME280;25631;51.516;-0.470;2022-07-30T04:58:41;101613.12;;;17.08;39.28
39954;BME280;25631;51.516;-0.470;2022-07-30T05:01:22;101608.52;;;16.89;39.38
39954;BME280;25631;51.516;-0.470;2022-07-30T05:04:00;101608.23;;;16.88;39.38
39954;BME280;25631;51.516;-0.470;2022-07-30T05:06:38;101623.52;;;16.92;39.35
39954;BME280;25631;51.516;-0.470;2022-07-30T05:09:16;101630.40;;;16.92;39.22
39954;BME280;25631;51.516;-0.470;2022-07-30T05:11:54;101630.74;;;16.96;39.06
39954;BME280;25631;51.516;-0.470;2022-07-30T05:14:31;101626.44;;;17.40;39.30
39954;BME280;25631;51.516;-0.470;2022-07-30T05:17:07;101629.72;;;17.14;39.35
39954;BME280;25631;51.516;-0.470;2022-07-30T05:19:44;101626.51;;;16.87;39.30
39954;BME280;25631;51.516;-0.470;2022-07-30T05:22:20;101624.20;;;17.01;39.19
39954;BME280;25631;51.516;-0.470;2022-07-30T05:24:57;101627.94;;;16.85;39.31
39954;BME280;25631;51.516;-0.470;2022-07-30T05:27:34;101631.86;;;16.24;39.28
39954;BME280;25631;51.516;-0.470;2022-07-30T05:30:11;101637.63;;;17.17;39.17
39954;BME280;25631;51.516;-0.470;2022-07-30T05:32:47;101636.83;;;16.84;39.25
39954;BME280;25631;51.516;-0.470;2022-07-30T05:35:23;101637.43;;;17.08;39.10
39954;BME280;25631;51.516;-0.470;2022-07-30T05:38:00;101634.77;;;17.44;39.11
39954;BME280;25631;51.516;-0.470;2022-07-30T05:40:37;101632.83;;;17.08;38.93
39954;BME280;25631;51.516;-0.470;2022-07-30T05:43:13;101624.48;;;17.31;38.70
39954;BME280;25631;51.516;-0.470;2022-07-30T05:45:49;101620.30;;;17.28;38.65
39954;BME280;25631;51.516;-0.470;2022-07-30T05:48:26;101613.99;;;17.21;38.57
39954;BME280;25631;51.516;-0.470;2022-07-30T05:51:02;101609.22;;;17.11;38.50
39954;BME280;25631;51.516;-0.470;2022-07-30T05:53:39;101602.08;;;17.16;38.38
39954;BME280;25631;51.516;-0.470;2022-07-30T05:56:16;101601.51;;;17.60;38.30
39954;BME280;25631;51.516;-0.470;2022-07-30T05:58:52;101608.44;;;17.45;38.17
39954;BME280;25631;51.516;-0.470;2022-07-30T06:01:28;101617.70;;;17.41;38.09
39954;BME280;25631;51.516;-0.470;2022-07-30T06:04:05;101616.42;;;17.47;38.05
39954;BME280;25631;51.516;-0.470;2022-07-30T06:06:41;101616.50;;;17.31;37.99
39954;BME280;25631;51.516;-0.470;2022-07-30T06:09:18;101614.75;;;17.46;37.98
39954;BME280;25631;51.516;-0.470;2022-07-30T06:11:54;101618.84;;;17.08;37.87
39954;BME280;25631;51.516;-0.470;2022-07-30T06:14:30;101621.97;;;17.34;37.73
39954;BME280;25631;51.516;-0.470;2022-07-30T06:17:07;101618.18;;;17.67;37.62
39954;BME280;25631;51.516;-0.470;2022-07-30T06:19:43;101620.84;;;17.26;37.70
39954;BME280;25631;51.516;-0.470;2022-07-30T06:22:19;101618.43;;;17.61;37.75
39954;BME280;25631;51.516;-0.470;2022-07-30T06:24:56;101618.79;;;17.43;37.89
39954;BME280;25631;51.516;-0.470;2022-07-30T06:27:33;101619.85;;;17.33;37.96
39954;BME280;25631;51.516;-0.470;2022-07-30T06:30:10;101618.14;;;17.38;37.89
39954;BME280;25631;51.516;-0.470;2022-07-30T06:32:47;101621.58;;;17.38;37.90
39954;BME280;25631;51.516;-0.470;2022-07-30T06:35:23;101628.54;;;17.87;37.78
39954;BME280;25631;51.516;-0.470;2022-07-30T06:38:00;101628.96;;;17.67;37.78
39954;BME280;25631;51.516;-0.470;2022-07-30T06:40:36;101623.22;;;17.44;37.77
39954;BME280;25631;51.516;-0.470;2022-07-30T06:43:12;101623.27;;;17.71;37.73
39954;BME280;25631;51.516;-0.470;2022-07-30T06:45:48;101621.80;;;17.68;37.63
39954;BME280;25631;51.516;-0.470;2022-07-30T06:48:25;101613.93;;;17.60;37.51
39954;BME280;25631;51.516;-0.470;2022-07-30T06:51:01;101611.21;;;17.68;37.38
39954;BME280;25631;51.516;-0.470;2022-07-30T06:53:38;101606.90;;;17.81;36.96
39954;BME280;25631;51.516;-0.470;2022-07-30T06:56:14;101603.35;;;17.74;36.96
39954;BME280;25631;51.516;-0.470;2022-07-30T06:58:50;101607.85;;;17.73;36.84
39954;BME280;25631;51.516;-0.470;2022-07-30T07:01:27;101613.77;;;17.80;36.78
39954;BME280;25631;51.516;-0.470;2022-07-30T07:04:03;101616.09;;;17.66;36.66
39954;BME280;25631;51.516;-0.470;2022-07-30T07:06:40;101617.42;;;17.96;36.50
39954;BME280;25631;51.516;-0.470;2022-07-30T07:09:16;101624.07;;;17.42;36.40
39954;BME280;25631;51.516;-0.470;2022-07-30T07:11:53;101624.59;;;17.89;36.35
39954;BME280;25631;51.516;-0.470;2022-07-30T07:14:29;101627.36;;;17.86;36.59
39954;BME280;25631;51.516;-0.470;2022-07-30T07:17:05;101627.51;;;18.42;36.19
39954;BME280;25631;51.516;-0.470;2022-07-30T07:19:42;101629.09;;;17.78;35.93
39954;BME280;25631;51.516;-0.470;2022-07-30T07:22:18;101631.06;;;18.02;35.79
39954;BME280;25631;51.516;-0.470;2022-07-30T07:24:54;101631.71;;;18.19;35.59
39954;BME280;25631;51.516;-0.470;2022-07-30T07:27:31;101636.18;;;18.37;35.23
39954;BME280;25631;51.516;-0.470;2022-07-30T07:30:08;101634.05;;;18.58;35.24
39954;BME280;25631;51.516;-0.470;2022-07-30T07:32:44;101626.96;;;18.77;35.06
39954;BME280;25631;51.516;-0.470;2022-07-30T07:35:21;101630.03;;;18.66;34.94
39954;BME280;25631;51.516;-0.470;2022-07-30T07:37:57;101628.68;;;18.82;34.90
39954;BME280;25631;51.516;-0.470;2022-07-30T07:40:34;101630.78;;;18.66;34.65
39954;BME280;25631;51.516;-0.470;2022-07-30T07:43:10;101628.30;;;18.87;34.48
39954;BME280;25631;51.516;-0.470;2022-07-30T07:45:46;101625.76;;;18.85;34.47
39954;BME280;25631;51.516;-0.470;2022-07-30T07:48:23;101622.46;;;18.85;34.47
39954;BME280;25631;51.516;-0.470;2022-07-30T07:50:59;101621.88;;;19.07;34.10
39954;BME280;25631;51.516;-0.470;2022-07-30T07:53:36;101623.24;;;19.18;34.12
39954;BME280;25631;51.516;-0.470;2022-07-30T07:56:12;101619.76;;;19.46;33.86
39954;BME280;25631;51.516;-0.470;2022-07-30T07:58:49;101626.33;;;19.19;33.88
39954;BME280;25631;51.516;-0.470;2022-07-30T08:01:25;101630.62;;;19.03;33.96
39954;BME280;25631;51.516;-0.470;2022-07-30T08:04:02;101627.88;;;19.33;33.19
39954;BME280;25631;51.516;-0.470;2022-07-30T08:06:38;101626.54;;;19.45;33.41
39954;BME280;25631;51.516;-0.470;2022-07-30T08:09:15;101632.00;;;19.30;33.33
39954;BME280;25631;51.516;-0.470;2022-07-30T08:11:51;101634.76;;;19.47;33.08
39954;BME280;25631;51.516;-0.470;2022-07-30T08:14:27;101638.44;;;19.32;32.24
39954;BME280;25631;51.516;-0.470;2022-07-30T08:17:04;101641.04;;;19.51;31.68
39954;BME280;25631;51.516;-0.470;2022-07-30T08:19:40;101642.23;;;19.50;31.37
39954;BME280;25631;51.516;-0.470;2022-07-30T08:22:16;101635.43;;;19.92;31.69
39954;BME280;25631;51.516;-0.470;2022-07-30T08:24:53;101635.72;;;19.99;31.45
39954;BME280;25631;51.516;-0.470;2022-07-30T08:27:29;101634.84;;;19.45;31.38
39954;BME280;25631;51.516;-0.470;2022-07-30T08:30:08;101633.78;;;19.88;31.42
39954;BME280;25631;51.516;-0.470;2022-07-30T08:32:44;101641.19;;;20.02;30.59
39954;BME280;25631;51.516;-0.470;2022-07-30T08:35:21;101642.98;;;20.12;30.59
39954;BME280;25631;51.516;-0.470;2022-07-30T08:37:57;101641.75;;;20.12;30.51
39954;BME280;25631;51.516;-0.470;2022-07-30T08:40:34;101639.77;;;20.00;30.73
39954;BME280;25631;51.516;-0.470;2022-07-30T08:43:11;101643.14;;;20.26;30.58
39954;BME280;25631;51.516;-0.470;2022-07-30T08:45:47;101651.01;;;20.18;30.64
39954;BME280;25631;51.516;-0.470;2022-07-30T08:48:24;101647.16;;;20.62;30.56
39954;BME280;25631;51.516;-0.470;2022-07-30T08:51:01;101646.86;;;20.79;30.25
39954;BME280;25631;51.516;-0.470;2022-07-30T08:53:38;101646.49;;;20.75;30.00
39954;BME280;25631;51.516;-0.470;2022-07-30T08:56:15;101645.89;;;20.82;29.75
39954;BME280;25631;51.516;-0.470;2022-07-30T08:58:52;101654.28;;;21.02;29.59
39954;BME280;25631;51.516;-0.470;2022-07-30T09:01:28;101655.12;;;20.94;29.60
39954;BME280;25631;51.516;-0.470;2022-07-30T09:04:04;101656.73;;;21.15;29.81
39954;BME280;25631;51.516;-0.470;2022-07-30T09:06:41;101657.13;;;21.04;30.02
39954;BME280;25631;51.516;-0.470;2022-07-30T09:09:17;101659.71;;;21.04;29.86
39954;BME280;25631;51.516;-0.470;2022-07-30T09:11:53;101665.86;;;21.25;29.82
39954;BME280;25631;51.516;-0.470;2022-07-30T09:14:30;101665.03;;;21.55;29.75
39954;BME280;25631;51.516;-0.470;2022-07-30T09:17:06;101655.97;;;21.61;29.65
39954;BME280;25631;51.516;-0.470;2022-07-30T09:20:01;101654.31;;;21.57;29.31
39954;BME280;25631;51.516;-0.470;2022-07-30T09:22:43;101649.15;;;21.31;29.56
39954;BME280;25631;51.516;-0.470;2022-07-30T09:25:39;101649.43;;;21.84;29.34
39954;BME280;25631;51.516;-0.470;2022-07-30T09:28:15;101645.78;;;21.66;29.62
39954;BME280;25631;51.516;-0.470;2022-07-30T09:30:53;101640.87;;;21.64;29.58
39954;BME280;25631;51.516;-0.470;2022-07-30T09:33:33;101642.13;;;21.63;29.61
39954;BME280;25631;51.516;-0.470;2022-07-30T09:36:15;101651.75;;;21.16;29.76
39954;BME280;25631;51.516;-0.470;2022-07-30T09:38:53;101650.95;;;21.58;29.88
39954;BME280;25631;51.516;-0.470;2022-07-30T09:41:32;101653.47;;;21.07;29.72
39954;BME280;25631;51.516;-0.470;2022-07-30T09:44:09;101653.59;;;20.99;30.11
39954;BME280;25631;51.516;-0.470;2022-07-30T09:46:46;101648.57;;;20.85;30.42
39954;BME280;25631;51.516;-0.470;2022-07-30T09:49:25;101651.65;;;21.15;30.55
39954;BME280;25631;51.516;-0.470;2022-07-30T09:52:01;101654.67;;;20.96;30.25
39954;BME280;25631;51.516;-0.470;2022-07-30T09:54:46;101650.29;;;21.20;30.55
39954;BME280;25631;51.516;-0.470;2022-07-30T09:57:23;101644.55;;;21.68;30.19
39954;BME280;25631;51.516;-0.470;2022-07-30T10:00:16;101648.73;;;21.53;29.93
39954;BME280;25631;51.516;-0.470;2022-07-30T10:02:53;101652.52;;;21.52;29.61
39954;BME280;25631;51.516;-0.470;2022-07-30T10:05:31;101647.63;;;21.56;29.34
39954;BME280;25631;51.516;-0.470;2022-07-30T10:08:07;101648.82;;;22.10;29.53
39954;BME280;25631;51.516;-0.470;2022-07-30T10:10:45;101648.97;;;21.70;29.32
39954;BME280;25631;51.516;-0.470;2022-07-30T10:13:21;101653.93;;;21.93;29.03
39954;BME280;25631;51.516;-0.470;2022-07-30T10:15:58;101656.60;;;21.66;28.99
39954;BME280;25631;51.516;-0.470;2022-07-30T10:18:35;101655.91;;;21.62;28.74
39954;BME280;25631;51.516;-0.470;2022-07-30T10:21:12;101659.42;;;21.83;28.87
39954;BME280;25631;51.516;-0.470;2022-07-30T10:23:50;101656.87;;;21.72;29.16
39954;BME280;25631;51.516;-0.470;2022-07-30T10:26:32;101651.03;;;21.98;29.09
39954;BME280;25631;51.516;-0.470;2022-07-30T10:29:09;101651.79;;;21.98;29.13
39954;BME280;25631;51.516;-0.470;2022-07-30T10:31:46;101651.36;;;22.05;28.83
39954;BME280;25631;51.516;-0.470;2022-07-30T10:34:22;101645.27;;;22.26;28.93
39954;BME280;25631;51.516;-0.470;2022-07-30T10:37:02;101644.97;;;22.39;28.42
39954;BME280;25631;51.516;-0.470;2022-07-30T10:39:46;101643.13;;;22.20;28.58
39954;BME280;25631;51.516;-0.470;2022-07-30T10:42:41;101641.16;;;22.31;28.15
39954;BME280;25631;51.516;-0.470;2022-07-30T10:45:27;101643.65;;;22.55;27.99
39954;BME280;25631;51.516;-0.470;2022-07-30T10:48:08;101649.60;;;22.32;28.08
39954;BME280;25631;51.516;-0.470;2022-07-30T10:50:49;101647.56;;;22.23;28.11
39954;BME280;25631;51.516;-0.470;2022-07-30T10:53:35;101644.88;;;22.02;28.15
39954;BME280;25631;51.516;-0.470;2022-07-30T10:56:15;101645.28;;;22.25;28.43
39954;BME280;25631;51.516;-0.470;2022-07-30T10:59:00;101640.33;;;22.36;28.31
39954;BME280;25631;51.516;-0.470;2022-07-30T11:02:09;101636.50;;;22.53;27.81
39954;BME280;25631;51.516;-0.470;2022-07-30T11:04:46;101629.16;;;22.66;27.65
39954;BME280;25631;51.516;-0.470;2022-07-30T11:07:28;101632.66;;;22.44;27.36
39954;BME280;25631;51.516;-0.470;2022-07-30T11:10:04;101626.46;;;22.44;27.33
39954;BME280;25631;51.516;-0.470;2022-07-30T11:12:57;101634.37;;;22.43;27.37
39954;BME280;25631;51.516;-0.470;2022-07-30T11:15:55;101630.94;;;22.33;27.45
39954;BME280;25631;51.516;-0.470;2022-07-30T11:19:02;101628.67;;;22.71;27.54
39954;BME280;25631;51.516;-0.470;2022-07-30T11:21:39;101631.83;;;22.55;27.53
39954;BME280;25631;51.516;-0.470;2022-07-30T11:24:48;101630.61;;;22.69;27.38
39954;BME280;25631;51.516;-0.470;2022-07-30T11:27:42;101627.03;;;22.91;27.24
39954;BME280;25631;51.516;-0.470;2022-07-30T11:30:34;101623.23;;;22.79;27.27
39954;BME280;25631;51.516;-0.470;2022-07-30T11:33:27;101630.56;;;22.94;27.07
39954;BME280;25631;51.516;-0.470;2022-07-30T11:36:06;101627.08;;;22.92;26.89
39954;BME280;25631;51.516;-0.470;2022-07-30T11:38:52;101621.60;;;22.41;27.17
39954;BME280;25631;51.516;-0.470;2022-07-30T11:41:29;101620.62;;;22.77;27.20
39954;BME280;25631;51.516;-0.470;2022-07-30T11:44:37;101625.45;;;22.57;27.31
39954;BME280;25631;51.516;-0.470;2022-07-30T11:47:14;101632.71;;;22.76;27.62
39954;BME280;25631;51.516;-0.470;2022-07-30T11:49:51;101628.79;;;22.98;27.67
39954;BME280;25631;51.516;-0.470;2022-07-30T11:52:28;101633.54;;;23.14;27.68
39954;BME280;25631;51.516;-0.470;2022-07-30T11:55:05;101633.76;;;23.12;27.74
39954;BME280;25631;51.516;-0.470;2022-07-30T11:57:42;101633.33;;;23.11;27.97
39954;BME280;25631;51.516;-0.470;2022-07-30T12:00:18;101629.62;;;23.05;27.97
39954;BME280;25631;51.516;-0.470;2022-07-30T12:02:55;101630.20;;;22.91;27.93
39954;BME280;25631;51.516;-0.470;2022-07-30T12:05:31;101631.28;;;23.28;27.96
39954;BME280;25631;51.516;-0.470;2022-07-30T12:08:08;101629.67;;;23.31;27.80
39954;BME280;25631;51.516;-0.470;2022-07-30T12:10:55;101629.34;;;23.47;27.80
39954;BME280;25631;51.516;-0.470;2022-07-30T12:13:32;101628.37;;;23.62;27.72
39954;BME280;25631;51.516;-0.470;2022-07-30T12:16:11;101626.39;;;23.49;27.87
39954;BME280;25631;51.516;-0.470;2022-07-30T12:18:48;101619.38;;;23.21;27.50
39954;BME280;25631;51.516;-0.470;2022-07-30T12:21:24;101613.92;;;23.80;27.32
39954;BME280;25631;51.516;-0.470;2022-07-30T12:24:02;101614.40;;;23.83;27.22
39954;BME280;25631;51.516;-0.470;2022-07-30T12:26:39;101616.42;;;23.45;27.05
39954;BME280;25631;51.516;-0.470;2022-07-30T12:29:15;101611.08;;;23.75;27.36
39954;BME280;25631;51.516;-0.470;2022-07-30T12:31:51;101610.87;;;23.94;27.11
39954;BME280;25631;51.516;-0.470;2022-07-30T12:34:28;101605.73;;;23.91;27.30
39954;BME280;25631;51.516;-0.470;2022-07-30T12:37:08;101607.88;;;23.90;27.33
39954;BME280;25631;51.516;-0.470;2022-07-30T12:39:45;101605.52;;;23.96;27.41
39954;BME280;25631;51.516;-0.470;2022-07-30T12:42:21;101599.55;;;24.03;27.19
39954;BME280;25631;51.516;-0.470;2022-07-30T12:44:57;101597.03;;;24.19;27.31
39954;BME280;25631;51.516;-0.470;2022-07-30T12:47:34;101588.78;;;24.15;27.02
39954;BME280;25631;51.516;-0.470;2022-07-30T12:50:16;101588.12;;;24.31;27.22
39954;BME280;25631;51.516;-0.470;2022-07-30T12:52:53;101586.83;;;24.27;26.91
39954;BME280;25631;51.516;-0.470;2022-07-30T12:55:31;101584.05;;;24.51;26.94
39954;BME280;25631;51.516;-0.470;2022-07-30T12:58:08;101577.92;;;24.58;27.16
39954;BME280;25631;51.516;-0.470;2022-07-30T13:00:46;101581.70;;;24.96;26.78
39954;BME280;25631;51.516;-0.470;2022-07-30T13:03:24;101581.98;;;25.03;26.34
39954;BME280;25631;51.516;-0.470;2022-07-30T13:06:11;101581.08;;;25.18;26.34
39954;BME280;25631;51.516;-0.470;2022-07-30T13:08:50;101580.82;;;25.52;26.15
39954;BME280;25631;51.516;-0.470;2022-07-30T13:11:37;101580.03;;;25.94;26.00
39954;BME280;25631;51.516;-0.470;2022-07-30T13:14:13;101576.08;;;26.01;26.02
39954;BME280;25631;51.516;-0.470;2022-07-30T13:16:53;101572.32;;;25.84;26.23
39954;BME280;25631;51.516;-0.470;2022-07-30T13:19:29;101569.80;;;25.92;25.84
39954;BME280;25631;51.516;-0.470;2022-07-30T13:22:06;101566.53;;;25.87;25.88
39954;BME280;25631;51.516;-0.470;2022-07-30T13:24:42;101568.32;;;26.00;25.82
39954;BME280;25631;51.516;-0.470;2022-07-30T13:27:18;101564.65;;;26.26;26.02
39954;BME280;25631;51.516;-0.470;2022-07-30T13:29:54;101557.07;;;26.22;25.66
39954;BME280;25631;51.516;-0.470;2022-07-30T13:32:31;101558.60;;;26.71;25.74
39954;BME280;25631;51.516;-0.470;2022-07-30T13:35:08;101556.97;;;26.35;25.62
39954;BME280;25631;51.516;-0.470;2022-07-30T13:37:44;101561.18;;;26.08;25.94
39954;BME280;25631;51.516;-0.470;2022-07-30T13:40:21;101562.02;;;25.83;25.99